createdAt,value
2022-12-03T00:01:45.453Z,62.33
2022-12-03T00:04:12.013Z,68.78
2022-12-03T00:06:38.592Z,62.63
2022-12-03T00:09:05.436Z,58.83
2022-12-03T00:11:32.429Z,67.18
2022-12-03T00:13:58.898Z,52.10
2022-12-03T00:16:25.823Z,67.70
2022-12-03T00:18:52.893Z,60.70
2022-12-03T00:21:20.004Z,58.42
2022-12-03T00:23:46.554Z,63.97
2022-12-03T00:26:13.426Z,56.97
2022-12-03T00:28:39.922Z,63.33
2022-12-03T00:31:06.524Z,58.85
2022-12-03T00:33:33.140Z,64.40
2022-12-03T00:35:59.634Z,67.40
2022-12-03T00:38:26.175Z,78.05
2022-12-03T00:40:52.663Z,66.07
2022-12-03T00:43:19.127Z,66.85
2022-12-03T00:45:45.626Z,60.13
2022-12-03T00:48:12.093Z,58.10
2022-12-03T00:50:38.579Z,62.63
2022-12-03T00:53:05.063Z,64.15
2022-12-03T00:55:31.570Z,67.63
2022-12-03T00:57:58.081Z,55.47
2022-12-03T01:00:25.409Z,56.97
2022-12-03T01:02:52.970Z,61.53
2022-12-03T01:05:20.362Z,48.58
2022-12-03T01:07:47.849Z,59.00
2022-12-03T01:10:14.685Z,50.22
2022-12-03T01:12:41.199Z,59.53
2022-12-03T01:15:08.515Z,63.80
2022-12-03T01:17:35.356Z,59.85
2022-12-03T01:20:02.353Z,53.85
2022-12-03T01:22:28.855Z,54.28
2022-12-03T01:24:55.723Z,55.13
2022-12-03T01:27:22.795Z,58.17
2022-12-03T01:29:49.302Z,57.88
2022-12-03T01:32:22.000Z,60.03
2022-12-03T01:34:56.116Z,58.15
2022-12-03T01:37:24.902Z,54.25
2022-12-03T01:39:52.218Z,48.33
2022-12-03T01:42:27.175Z,50.15
2022-12-03T01:44:56.625Z,60.85
2022-12-03T01:47:33.603Z,53.55
2022-12-03T01:50:04.473Z,44.53
2022-12-03T01:52:33.939Z,48.15
2022-12-03T01:55:02.704Z,45.50
2022-12-03T01:57:41.546Z,43.42
2022-12-03T02:00:22.768Z,53.40
2022-12-03T02:02:56.255Z,49.80
2022-12-03T02:05:26.300Z,49.83
2022-12-03T02:07:53.470Z,49.88
2022-12-03T02:10:25.484Z,47.45
2022-12-03T02:12:57.835Z,48.53
2022-12-03T02:15:24.958Z,40.42
2022-12-03T02:17:52.190Z,51.40
2022-12-03T02:20:19.724Z,45.63
2022-12-03T02:22:49.120Z,52.70
2022-12-03T02:25:21.217Z,49.22
2022-12-03T02:27:48.366Z,41.70
2022-12-03T02:30:18.962Z,49.30
2022-12-03T02:32:45.885Z,45.42
2022-12-03T02:35:19.496Z,44.92
2022-12-03T02:38:13.201Z,48.13
2022-12-03T02:40:40.683Z,46.17
2022-12-03T02:43:07.418Z,35.17
2022-12-03T02:45:38.716Z,35.17
2022-12-03T02:48:16.493Z,41.97
2022-12-03T02:50:53.100Z,47.72
2022-12-03T02:53:24.931Z,37.88
2022-12-03T02:55:53.262Z,48.97
2022-12-03T02:58:20.675Z,40.67
2022-12-03T03:00:49.448Z,40.10
2022-12-03T03:03:17.918Z,39.92
2022-12-03T03:05:45.565Z,47.75
2022-12-03T03:08:13.039Z,42.28
2022-12-03T03:10:41.629Z,41.67
2022-12-03T03:13:11.626Z,38.97
2022-12-03T03:15:39.689Z,37.40
2022-12-03T03:18:07.728Z,41.03
2022-12-03T03:20:35.030Z,38.97
2022-12-03T03:23:19.801Z,49.13
2022-12-03T03:25:50.451Z,36.08
2022-12-03T03:28:17.713Z,39.30
2022-12-03T03:30:44.727Z,40.47
2022-12-03T03:33:13.063Z,27.15
2022-12-03T03:35:40.196Z,37.60
2022-12-03T03:38:09.002Z,38.83
2022-12-03T03:40:37.087Z,42.67
2022-12-03T03:43:04.141Z,36.35
2022-12-03T03:45:30.805Z,30.27
2022-12-03T03:48:01.240Z,41.70
2022-12-03T03:50:31.433Z,43.53
2022-12-03T03:52:59.608Z,35.22
2022-12-03T03:55:26.469Z,32.80
2022-12-03T03:57:53.196Z,46.22
2022-12-03T04:00:19.921Z,40.58
2022-12-03T04:02:46.854Z,36.30
2022-12-03T04:05:19.228Z,35.55
2022-12-03T04:07:46.109Z,35.45
2022-12-03T04:10:36.668Z,37.55
2022-12-03T04:13:04.363Z,25.65
2022-12-03T04:15:31.382Z,40.40
2022-12-03T04:18:16.505Z,43.78
2022-12-03T04:20:43.114Z,37.13
2022-12-03T04:23:09.614Z,44.67
2022-12-03T04:25:54.805Z,39.70
2022-12-03T04:28:40.238Z,37.88
2022-12-03T04:31:25.950Z,36.75
2022-12-03T04:34:11.641Z,38.38
2022-12-03T04:36:38.279Z,36.60
2022-12-03T04:39:04.856Z,33.75
2022-12-03T04:41:31.348Z,35.33
2022-12-03T04:44:16.312Z,35.03
2022-12-03T04:46:42.838Z,39.55
2022-12-03T04:49:09.340Z,37.30
2022-12-03T04:51:36.013Z,33.05
2022-12-03T04:54:02.604Z,39.20
2022-12-03T04:56:29.142Z,35.78
2022-12-03T04:58:55.709Z,39.53
2022-12-03T05:01:22.608Z,40.15
2022-12-03T05:03:49.308Z,35.05
2022-12-03T05:06:15.834Z,43.80
2022-12-03T05:08:42.335Z,40.17
2022-12-03T05:11:08.807Z,40.58
2022-12-03T05:13:35.478Z,39.53
2022-12-03T05:16:01.939Z,32.50
2022-12-03T05:18:28.494Z,35.90
2022-12-03T05:20:54.987Z,37.97
2022-12-03T05:23:22.474Z,34.83
2022-12-03T05:25:49.050Z,37.72
2022-12-03T05:28:15.709Z,33.83
2022-12-03T05:30:42.365Z,40.10
2022-12-03T05:33:08.935Z,40.85
2022-12-03T05:35:35.414Z,44.15
2022-12-03T05:38:01.922Z,40.65
2022-12-03T05:40:28.617Z,36.42
2022-12-03T05:42:55.259Z,38.42
2022-12-03T05:45:33.440Z,34.90
2022-12-03T05:48:01.071Z,38.38
2022-12-03T05:50:30.117Z,39.97
2022-12-03T05:52:57.380Z,41.90
2022-12-03T05:55:24.334Z,37.10
2022-12-03T05:57:50.892Z,42.17
2022-12-03T06:00:28.919Z,39.92
2022-12-03T06:02:55.965Z,37.25
2022-12-03T06:05:23.346Z,35.67
2022-12-03T06:07:51.488Z,31.23
2022-12-03T06:10:22.489Z,39.95
2022-12-03T06:12:49.172Z,38.20
2022-12-03T06:15:16.067Z,39.90
2022-12-03T06:17:43.415Z,43.33
2022-12-03T06:20:13.848Z,36.40
2022-12-03T06:22:40.489Z,41.83
2022-12-03T06:25:07.788Z,41.88
2022-12-03T06:27:34.412Z,37.78
2022-12-03T06:30:00.906Z,38.38
2022-12-03T06:32:27.952Z,42.63
2022-12-03T06:34:54.651Z,42.45
2022-12-03T06:37:21.443Z,43.90
2022-12-03T06:39:47.972Z,27.85
2022-12-03T06:42:14.454Z,32.22
2022-12-03T06:44:41.491Z,40.70
2022-12-03T06:47:08.014Z,42.03
2022-12-03T06:49:34.831Z,41.50
2022-12-03T06:52:01.392Z,41.58
2022-12-03T06:54:27.940Z,42.05
2022-12-03T06:56:54.670Z,44.83
2022-12-03T06:59:21.188Z,43.45
2022-12-03T07:01:47.771Z,44.67
2022-12-03T07:04:14.318Z,67.38
2022-12-03T07:06:40.883Z,40.88
2022-12-03T07:09:07.452Z,44.78
2022-12-03T07:11:40.008Z,46.47
2022-12-03T07:14:08.007Z,41.90
2022-12-03T07:16:36.002Z,42.33
2022-12-03T07:19:03.544Z,44.15
2022-12-03T07:21:30.086Z,45.78
2022-12-03T07:23:56.576Z,45.60
2022-12-03T07:26:23.100Z,40.50
2022-12-03T07:28:49.627Z,41.53
2022-12-03T07:31:16.213Z,39.83
2022-12-03T07:33:42.918Z,39.13
2022-12-03T07:36:10.306Z,45.38
2022-12-03T07:38:37.034Z,44.20
2022-12-03T07:41:03.574Z,37.80
2022-12-03T07:43:30.200Z,43.15
2022-12-03T07:45:56.696Z,38.65
2022-12-03T07:48:23.281Z,37.67
2022-12-03T07:50:49.806Z,41.50
2022-12-03T07:53:16.483Z,43.88
2022-12-03T07:55:43.303Z,46.85
2022-12-03T07:58:09.766Z,43.30
2022-12-03T08:00:36.396Z,45.08
2022-12-03T08:03:03.153Z,38.28
2022-12-03T08:05:29.943Z,43.42
2022-12-03T08:07:56.814Z,46.92
2022-12-03T08:10:25.175Z,47.53
2022-12-03T08:12:51.703Z,43.28
2022-12-03T08:15:24.284Z,54.65
2022-12-03T08:17:58.727Z,46.50
2022-12-03T08:20:33.846Z,48.95
2022-12-03T08:23:06.690Z,48.88
2022-12-03T08:25:33.273Z,45.95
2022-12-03T08:28:35.679Z,40.95
2022-12-03T08:31:18.575Z,46.60
2022-12-03T08:33:46.293Z,51.90
2022-12-03T08:36:16.812Z,65.43
2022-12-03T08:38:51.059Z,55.80
2022-12-03T08:41:39.538Z,58.13
2022-12-03T08:44:36.743Z,46.13
2022-12-03T08:47:09.120Z,60.95
2022-12-03T08:49:36.935Z,58.00
2022-12-03T08:52:13.784Z,49.08
2022-12-03T08:54:41.332Z,48.83
2022-12-03T08:57:27.398Z,52.65
2022-12-03T08:59:58.957Z,58.53
2022-12-03T09:02:32.637Z,56.83
2022-12-03T09:05:13.374Z,59.65
2022-12-03T09:07:40.022Z,53.42
2022-12-03T09:10:07.510Z,52.55
2022-12-03T09:12:34.085Z,51.60
2022-12-03T09:15:01.362Z,49.80
2022-12-03T09:17:27.851Z,53.28
2022-12-03T09:19:54.626Z,51.30
2022-12-03T09:22:21.122Z,46.90
2022-12-03T09:24:47.696Z,48.08
2022-12-03T09:27:14.173Z,55.80
2022-12-03T09:29:40.764Z,48.42
2022-12-03T09:32:07.321Z,47.60
2022-12-03T09:34:34.856Z,52.05
2022-12-03T09:37:01.857Z,50.95
2022-12-03T09:39:28.360Z,42.13
2022-12-03T09:41:55.782Z,53.90
2022-12-03T09:44:22.454Z,44.85
2022-12-03T09:46:49.463Z,53.72
2022-12-03T09:49:18.279Z,41.95
2022-12-03T09:51:45.579Z,64.63
2022-12-03T09:54:23.159Z,55.55
2022-12-03T09:56:50.686Z,54.60
2022-12-03T09:59:17.559Z,58.67
2022-12-03T10:01:44.686Z,46.70
2022-12-03T10:04:11.679Z,50.22
2022-12-03T10:06:43.991Z,50.55
2022-12-03T10:09:18.297Z,51.83
2022-12-03T10:11:44.849Z,50.50
2022-12-03T10:14:15.487Z,44.72
2022-12-03T10:16:42.208Z,55.80
2022-12-03T10:19:26.158Z,59.22
2022-12-03T10:21:53.018Z,52.13
2022-12-03T10:24:29.028Z,42.78
2022-12-03T10:27:00.893Z,51.05
2022-12-03T10:29:33.894Z,43.80
2022-12-03T10:32:06.450Z,47.92
2022-12-03T10:34:38.949Z,45.95
2022-12-03T10:37:14.086Z,45.97
2022-12-03T10:39:59.460Z,43.97
2022-12-03T10:42:28.930Z,52.05
2022-12-03T10:45:07.694Z,37.83
2022-12-03T10:47:34.437Z,42.80
2022-12-03T10:50:04.745Z,39.00
2022-12-03T10:52:31.617Z,47.22
2022-12-03T10:54:58.338Z,47.72
2022-12-03T10:57:25.237Z,50.42
2022-12-03T10:59:51.781Z,50.40
2022-12-03T11:02:24.016Z,52.65
2022-12-03T11:04:51.916Z,54.35
2022-12-03T11:07:20.871Z,53.10
2022-12-03T11:09:50.097Z,47.95
2022-12-03T11:12:20.739Z,47.33
2022-12-03T11:15:05.255Z,52.60
2022-12-03T11:17:43.997Z,52.83
2022-12-03T11:20:22.993Z,47.72
2022-12-03T11:22:55.120Z,51.10
2022-12-03T11:25:24.609Z,50.50
2022-12-03T11:28:13.063Z,53.20
2022-12-03T11:30:48.914Z,47.22
2022-12-03T11:33:28.098Z,55.90
2022-12-03T11:36:03.850Z,49.53
2022-12-03T11:38:41.016Z,51.00
2022-12-03T11:41:13.508Z,54.05
2022-12-03T11:43:54.017Z,50.55
2022-12-03T11:46:22.366Z,54.55
2022-12-03T11:48:52.282Z,52.03
2022-12-03T11:51:22.090Z,46.20
2022-12-03T11:53:51.064Z,54.72
2022-12-03T11:56:21.234Z,51.63
2022-12-03T11:58:48.129Z,59.30
2022-12-03T12:01:16.361Z,52.25
2022-12-03T12:03:49.051Z,53.50
2022-12-03T12:06:17.896Z,55.25
2022-12-03T12:08:58.924Z,50.13
2022-12-03T12:11:34.189Z,52.92
2022-12-03T12:14:03.042Z,54.22
2022-12-03T12:16:51.868Z,52.42
2022-12-03T12:19:33.493Z,45.03
2022-12-03T12:22:20.138Z,53.50
2022-12-03T12:24:51.818Z,53.35
2022-12-03T12:27:29.046Z,50.05
2022-12-03T12:30:00.743Z,50.10
2022-12-03T12:32:30.624Z,43.22
2022-12-03T12:35:02.454Z,51.90
2022-12-03T12:37:47.368Z,45.30
2022-12-03T12:40:18.122Z,46.90
2022-12-03T12:42:53.634Z,54.33
2022-12-03T12:45:36.532Z,51.75
2022-12-03T12:50:50.742Z,49.50
2022-12-03T12:53:24.214Z,47.85
2022-12-03T12:55:57.558Z,50.03
2022-12-03T12:58:25.488Z,50.70
2022-12-03T13:00:55.476Z,49.58
2022-12-03T13:03:26.083Z,52.78
2022-12-03T13:05:53.777Z,46.20
2022-12-03T13:08:30.713Z,52.25
2022-12-03T13:11:02.010Z,54.45
2022-12-03T13:13:30.303Z,49.65
2022-12-03T13:16:18.872Z,50.72
2022-12-03T13:18:49.470Z,50.53
2022-12-03T13:21:44.060Z,53.97
2022-12-03T13:24:32.064Z,56.83
2022-12-03T13:27:19.649Z,54.63
2022-12-03T13:29:49.723Z,53.92
2022-12-03T13:32:20.157Z,51.75
2022-12-03T13:34:47.559Z,57.83
2022-12-03T13:37:22.554Z,54.33
2022-12-03T13:39:55.180Z,56.03
2022-12-03T13:42:38.746Z,49.65
2022-12-03T13:45:25.806Z,48.15
2022-12-03T13:47:58.386Z,50.05
2022-12-03T13:50:43.962Z,49.47
2022-12-03T13:53:18.258Z,53.55
2022-12-03T13:55:48.090Z,54.08
2022-12-03T13:58:14.722Z,52.90
2022-12-03T14:00:41.478Z,58.38
2022-12-03T14:03:08.168Z,59.80
2022-12-03T14:05:34.818Z,51.08
2022-12-03T14:08:04.951Z,56.72
2022-12-03T14:10:31.959Z,55.33
2022-12-03T14:12:58.447Z,57.33
2022-12-03T14:15:27.535Z,60.67
2022-12-03T14:17:54.175Z,58.63
2022-12-03T14:20:21.103Z,59.55
2022-12-03T14:22:47.623Z,55.55
2022-12-03T14:25:14.207Z,60.85
2022-12-03T14:27:40.701Z,60.47
2022-12-03T14:30:07.876Z,62.75
2022-12-03T14:32:34.369Z,59.83
2022-12-03T14:35:05.140Z,61.45
2022-12-03T14:37:34.761Z,61.72
2022-12-03T14:40:03.735Z,60.92
2022-12-03T14:42:30.272Z,63.95
2022-12-03T14:44:57.439Z,65.47
2022-12-03T14:47:24.004Z,63.60
2022-12-03T14:49:51.736Z,59.00
2022-12-03T14:52:18.937Z,65.43
2022-12-03T14:54:45.651Z,62.75
2022-12-03T14:57:14.385Z,57.45
2022-12-03T14:59:42.505Z,63.85
2022-12-03T15:02:10.384Z,67.70
2022-12-03T15:04:37.532Z,63.92
2022-12-03T15:07:04.373Z,66.97
2022-12-03T15:09:30.954Z,64.80
2022-12-03T15:11:57.467Z,75.95
2022-12-03T15:14:24.008Z,65.80
2022-12-03T15:16:50.615Z,70.82
2022-12-03T15:19:17.200Z,71.20
2022-12-03T15:21:43.850Z,64.30
2022-12-03T15:24:10.804Z,63.63
2022-12-03T15:26:37.501Z,80.25
2022-12-03T15:29:04.108Z,68.57
2022-12-03T15:31:30.806Z,69.45
2022-12-03T15:33:57.326Z,77.28
2022-12-03T15:36:23.851Z,78.35
2022-12-03T15:38:50.349Z,82.50
2022-12-03T15:41:29.504Z,72.60
2022-12-03T15:44:01.523Z,77.53
2022-12-03T15:46:28.777Z,78.63
2022-12-03T15:48:55.851Z,77.93
2022-12-03T15:51:22.529Z,83.00
2022-12-03T15:53:49.223Z,88.38
2022-12-03T15:56:15.976Z,82.10
2022-12-03T15:58:42.895Z,86.75
2022-12-03T16:01:09.844Z,78.57
2022-12-03T16:03:36.885Z,81.53
2022-12-03T16:06:03.543Z,81.68
2022-12-03T16:08:30.131Z,71.53
2022-12-03T16:10:56.758Z,82.00
2022-12-03T16:13:23.302Z,81.38
2022-12-03T16:15:50.009Z,92.97
2022-12-03T16:18:16.632Z,78.65
2022-12-03T16:20:43.246Z,85.90
2022-12-03T16:23:09.835Z,91.95
2022-12-03T16:25:36.323Z,87.25
2022-12-03T16:28:03.242Z,105.47
2022-12-03T16:30:29.794Z,92.50
2022-12-03T16:32:57.114Z,94.10
2022-12-03T16:35:23.688Z,92.32
2022-12-03T16:37:50.146Z,96.75
2022-12-03T16:40:16.819Z,90.13
2022-12-03T16:42:43.738Z,98.82
2022-12-03T16:45:10.758Z,95.90
2022-12-03T16:47:37.633Z,88.97
2022-12-03T16:50:07.599Z,81.38
2022-12-03T16:52:35.013Z,83.32
2022-12-03T16:55:01.753Z,84.05
2022-12-03T16:57:33.432Z,96.45
2022-12-03T17:00:00.958Z,86.85
2022-12-03T17:02:27.786Z,92.70
2022-12-03T17:04:54.859Z,80.82
2022-12-03T17:07:21.376Z,89.43
2022-12-03T17:09:47.883Z,87.35
2022-12-03T17:12:14.916Z,100.80
2022-12-03T17:14:41.382Z,104.55
2022-12-03T17:17:08.251Z,91.22
2022-12-03T17:19:35.959Z,99.32
2022-12-03T17:22:02.433Z,99.25
2022-12-03T17:24:28.962Z,106.43
2022-12-03T17:26:55.466Z,106.35
2022-12-03T17:29:22.248Z,118.78
2022-12-03T17:31:48.866Z,98.70
2022-12-03T17:34:15.455Z,98.78
2022-12-03T17:36:41.936Z,100.65
2022-12-03T17:39:08.924Z,115.07
2022-12-03T17:41:35.457Z,111.45
2022-12-03T17:44:07.293Z,107.38
2022-12-03T17:46:36.451Z,121.43
2022-12-03T17:49:03.795Z,105.35
2022-12-03T17:51:30.681Z,118.70
2022-12-03T17:53:58.165Z,110.20
2022-12-03T17:56:25.605Z,98.60
2022-12-03T17:58:52.180Z,119.55
2022-12-03T18:01:18.833Z,98.78
2022-12-03T18:03:45.363Z,107.50
2022-12-03T18:06:11.900Z,107.90
2022-12-03T18:08:38.465Z,108.68
2022-12-03T18:11:05.202Z,107.25
2022-12-03T18:13:31.695Z,102.85
2022-12-03T18:15:58.235Z,105.80
2022-12-03T18:18:24.780Z,112.22
2022-12-03T18:20:53.284Z,110.40
2022-12-03T18:23:21.071Z,106.57
2022-12-03T18:25:47.932Z,113.18
2022-12-03T18:28:14.452Z,91.20
2022-12-03T18:30:40.943Z,111.88
2022-12-03T18:33:07.538Z,116.07
2022-12-03T18:35:34.136Z,109.25
2022-12-03T18:38:00.717Z,113.80
2022-12-03T18:40:27.351Z,127.72
2022-12-03T18:42:53.897Z,108.20
2022-12-03T18:45:21.687Z,105.32
2022-12-03T18:47:48.420Z,113.40
2022-12-03T18:50:15.035Z,130.02
2022-12-03T18:52:41.662Z,115.35
2022-12-03T18:55:12.421Z,124.80
2022-12-03T18:57:39.942Z,92.75
2022-12-03T19:00:13.242Z,109.22
2022-12-03T19:03:03.772Z,114.53
2022-12-03T19:05:26.776Z,110.38
2022-12-03T19:07:55.235Z,103.30
2022-12-03T19:10:23.115Z,108.68
2022-12-03T19:12:50.254Z,116.40
2022-12-03T19:15:17.161Z,114.53
2022-12-03T19:17:49.236Z,97.07
2022-12-03T19:20:16.016Z,101.53
2022-12-03T19:22:42.759Z,113.72
2022-12-03T19:25:09.445Z,103.30
2022-12-03T19:27:35.932Z,100.82
2022-12-03T19:30:02.455Z,102.57
2022-12-03T19:32:29.043Z,97.78
2022-12-03T19:34:55.657Z,96.70
2022-12-03T19:37:22.193Z,104.25
2022-12-03T19:39:53.263Z,97.55
2022-12-03T19:42:20.037Z,101.60
2022-12-03T19:44:46.620Z,101.22
2022-12-03T19:47:13.244Z,96.38
2022-12-03T19:49:39.780Z,94.10
2022-12-03T19:52:06.265Z,107.43
2022-12-03T19:54:32.955Z,102.05
2022-12-03T19:56:59.516Z,99.25
2022-12-03T19:59:26.088Z,103.10
2022-12-03T20:01:53.269Z,106.63
2022-12-03T20:04:20.107Z,108.55
2022-12-03T20:06:47.601Z,99.90
2022-12-03T20:09:18.258Z,94.35
2022-12-03T20:11:45.983Z,102.47
2022-12-03T20:14:15.533Z,92.25
2022-12-03T20:16:42.396Z,99.97
2022-12-03T20:19:12.069Z,95.35
2022-12-03T20:21:39.375Z,105.38
2022-12-03T20:24:07.729Z,94.10
2022-12-03T20:26:34.556Z,95.40
2022-12-03T20:29:01.571Z,86.22
2022-12-03T20:31:30.860Z,88.60
2022-12-03T20:34:00.628Z,80.25
2022-12-03T20:36:29.140Z,88.60
2022-12-03T20:38:56.957Z,84.28
2022-12-03T20:41:24.274Z,86.85
2022-12-03T20:43:51.627Z,87.43
2022-12-03T20:46:21.500Z,85.75
2022-12-03T20:48:48.262Z,89.70
2022-12-03T20:51:18.060Z,92.10
2022-12-03T20:53:45.231Z,89.22
2022-12-03T20:56:26.065Z,86.72
2022-12-03T20:58:53.752Z,95.93
2022-12-03T21:01:26.500Z,82.03
2022-12-03T21:03:55.856Z,89.18
2022-12-03T21:06:24.214Z,80.03
2022-12-03T21:08:55.147Z,81.55
2022-12-03T21:13:53.053Z,78.93
2022-12-03T21:16:45.480Z,81.45
2022-12-03T21:19:10.072Z,82.05
2022-12-03T21:21:36.810Z,86.93
2022-12-03T21:24:03.526Z,85.63
2022-12-03T21:26:30.020Z,95.88
2022-12-03T21:28:56.512Z,85.88
2022-12-03T21:31:25.990Z,87.53
2022-12-03T21:33:53.949Z,84.70
2022-12-03T21:36:20.608Z,82.68
2022-12-03T21:38:48.254Z,91.80
2022-12-03T21:41:16.021Z,104.28
2022-12-03T21:43:43.403Z,92.57
2022-12-03T21:47:08.371Z,87.32
2022-12-03T21:49:00.286Z,94.40
2022-12-03T21:51:26.822Z,102.78
2022-12-03T21:53:53.373Z,99.35
2022-12-03T21:56:20.118Z,91.43
2022-12-03T21:58:47.121Z,94.13
2022-12-03T22:01:16.800Z,94.95
2022-12-03T22:03:43.705Z,104.57
2022-12-03T22:06:10.930Z,107.20
2022-12-03T22:08:39.020Z,101.50
2022-12-03T22:11:12.629Z,90.97
2022-12-03T22:13:39.741Z,91.30
2022-12-03T22:16:12.211Z,94.90
2022-12-03T22:18:39.333Z,92.72
2022-12-03T22:21:08.005Z,95.10
2022-12-03T22:23:35.288Z,100.30
2022-12-03T22:26:05.634Z,95.78
2022-12-03T22:28:32.855Z,94.45
2022-12-03T22:30:59.687Z,94.47
2022-12-03T22:33:26.438Z,101.00
2022-12-03T22:35:57.454Z,103.93
2022-12-03T22:40:51.118Z,98.40
2022-12-03T22:43:18.814Z,97.00
2022-12-03T22:45:45.804Z,94.88
2022-12-03T22:48:12.730Z,82.50
2022-12-03T22:50:44.467Z,98.55
2022-12-03T22:53:12.133Z,91.60
2022-12-03T22:55:39.259Z,108.45
2022-12-03T22:58:07.000Z,92.53
2022-12-03T23:00:37.325Z,95.75
2022-12-03T23:03:04.781Z,97.38
2022-12-03T23:05:38.595Z,106.95
2022-12-03T23:08:06.917Z,76.90
2022-12-03T23:10:35.804Z,94.22
2022-12-03T23:13:02.466Z,118.65
2022-12-03T23:15:29.070Z,107.15
2022-12-03T23:17:55.894Z,96.47
2022-12-03T23:20:22.699Z,92.07
2022-12-03T23:22:49.373Z,97.70
2022-12-03T23:25:16.567Z,104.93
2022-12-03T23:27:43.716Z,99.32
2022-12-03T23:30:11.274Z,115.22
2022-12-03T23:32:38.478Z,95.40
2022-12-03T23:35:05.903Z,68.80
2022-12-03T23:37:32.461Z,96.97
2022-12-03T23:39:58.984Z,91.65
2022-12-03T23:42:25.545Z,87.63
2022-12-03T23:44:52.104Z,99.10
2022-12-03T23:47:18.584Z,98.03
2022-12-03T23:49:45.115Z,103.47
2022-12-03T23:52:11.627Z,99.72
2022-12-03T23:54:38.197Z,95.53
2022-12-03T23:57:04.804Z,99.60
2022-12-03T23:59:31.355Z,76.72
